sensor_id;sensor_type;location;lat;lon;timestamp;P1;durP1;ratioP1;P2;durP2;ratioP2
10977;SDS011;5542;48.272;10.794;2023-06-01T00:02:12;4.32;;;4.00;;
10977;SDS011;5542;48.272;10.794;2023-06-01T00:04:39;4.15;;;3.70;;
10977;SDS011;5542;48.272;10.794;2023-06-01T00:07:06;3.63;;;3.33;;
10977;SDS011;5542;48.272;10.794;2023-06-01T00:09:34;3.13;;;2.67;;
10977;SDS011;5542;48.272;10.794;2023-06-01T00:12:01;2.93;;;2.70;;
10977;SDS011;5542;48.272;10.794;2023-06-01T00:14:28;3.75;;;3.13;;
10977;SDS011;5542;48.272;10.794;2023-06-01T00:16:54;3.45;;;3.17;;
10977;SDS011;5542;48.272;10.794;2023-06-01T00:19:22;4.60;;;3.45;;
10977;SDS011;5542;48.272;10.794;2023-06-01T00:21:51;3.05;;;2.85;;
10977;SDS011;5542;48.272;10.794;2023-06-01T00:24:18;2.83;;;2.63;;
10977;SDS011;5542;48.272;10.794;2023-06-01T00:26:46;3.20;;;2.77;;
10977;SDS011;5542;48.272;10.794;2023-06-01T00:29:13;2.90;;;2.70;;
10977;SDS011;5542;48.272;10.794;2023-06-01T00:31:40;3.22;;;2.92;;
10977;SDS011;5542;48.272;10.794;2023-06-01T00:34:07;3.95;;;3.58;;
10977;SDS011;5542;48.272;10.794;2023-06-01T00:36:33;3.40;;;3.10;;
10977;SDS011;5542;48.272;10.794;2023-06-01T00:39:00;3.42;;;3.13;;
10977;SDS011;5542;48.272;10.794;2023-06-01T00:41:29;3.97;;;3.58;;
10977;SDS011;5542;48.272;10.794;2023-06-01T00:43:57;3.40;;;3.10;;
10977;SDS011;5542;48.272;10.794;2023-06-01T00:46:24;3.92;;;3.58;;
10977;SDS011;5542;48.272;10.794;2023-06-01T00:48:51;2.92;;;2.72;;
10977;SDS011;5542;48.272;10.794;2023-06-01T00:51:18;3.25;;;2.95;;
10977;SDS011;5542;48.272;10.794;2023-06-01T00:53:45;3.67;;;3.38;;
10977;SDS011;5542;48.272;10.794;2023-06-01T00:56:12;4.55;;;3.30;;
10977;SDS011;5542;48.272;10.794;2023-06-01T00:58:38;3.17;;;2.97;;
10977;SDS011;5542;48.272;10.794;2023-06-01T01:01:07;4.30;;;3.90;;
10977;SDS011;5542;48.272;10.794;2023-06-01T01:03:44;3.42;;;3.13;;
10977;SDS011;5542;48.272;10.794;2023-06-01T01:06:15;3.47;;;3.17;;
10977;SDS011;5542;48.272;10.794;2023-06-01T01:08:54;3.25;;;3.05;;
10977;SDS011;5542;48.272;10.794;2023-06-01T01:11:33;3.60;;;3.30;;
10977;SDS011;5542;48.272;10.794;2023-06-01T01:14:04;3.40;;;3.10;;
10977;SDS011;5542;48.272;10.794;2023-06-01T01:16:38;3.47;;;3.22;;
10977;SDS011;5542;48.272;10.794;2023-06-01T01:19:14;3.42;;;3.13;;
10977;SDS011;5542;48.272;10.794;2023-06-01T01:21:57;2.88;;;2.67;;
10977;SDS011;5542;48.272;10.794;2023-06-01T01:24:35;5.20;;;3.90;;
10977;SDS011;5542;48.272;10.794;2023-06-01T01:27:13;3.65;;;3.35;;
10977;SDS011;5542;48.272;10.794;2023-06-01T01:29:45;4.32;;;3.97;;
10977;SDS011;5542;48.272;10.794;2023-06-01T01:32:12;4.47;;;4.07;;
10977;SDS011;5542;48.272;10.794;2023-06-01T01:34:39;3.67;;;3.38;;
10977;SDS011;5542;48.272;10.794;2023-06-01T01:37:09;3.45;;;3.15;;
10977;SDS011;5542;48.272;10.794;2023-06-01T01:39:36;3.25;;;3.05;;
10977;SDS011;5542;48.272;10.794;2023-06-01T01:42:03;3.95;;;3.63;;
10977;SDS011;5542;48.272;10.794;2023-06-01T01:44:30;3.67;;;3.38;;
10977;SDS011;5542;48.272;10.794;2023-06-01T01:47:01;5.85;;;4.53;;
10977;SDS011;5542;48.272;10.794;2023-06-01T01:49:37;4.05;;;3.65;;
10977;SDS011;5542;48.272;10.794;2023-06-01T01:52:10;4.20;;;3.80;;
10977;SDS011;5542;48.272;10.794;2023-06-01T01:54:41;3.70;;;3.40;;
10977;SDS011;5542;48.272;10.794;2023-06-01T01:57:09;3.20;;;2.90;;
10977;SDS011;5542;48.272;10.794;2023-06-01T01:59:37;4.05;;;3.67;;
10977;SDS011;5542;48.272;10.794;2023-06-01T02:02:05;4.30;;;3.90;;
10977;SDS011;5542;48.272;10.794;2023-06-01T02:04:32;3.75;;;3.45;;
10977;SDS011;5542;48.272;10.794;2023-06-01T02:06:58;4.32;;;3.72;;
10977;SDS011;5542;48.272;10.794;2023-06-01T02:09:25;3.55;;;3.25;;
10977;SDS011;5542;48.272;10.794;2023-06-01T02:11:51;3.38;;;3.08;;
10977;SDS011;5542;48.272;10.794;2023-06-01T02:14:18;3.65;;;2.90;;
10977;SDS011;5542;48.272;10.794;2023-06-01T02:16:44;3.00;;;2.80;;
10977;SDS011;5542;48.272;10.794;2023-06-01T02:19:12;2.90;;;2.70;;
10977;SDS011;5542;48.272;10.794;2023-06-01T02:21:40;3.50;;;3.20;;
10977;SDS011;5542;48.272;10.794;2023-06-01T02:24:07;2.95;;;2.75;;
10977;SDS011;5542;48.272;10.794;2023-06-01T02:26:34;4.03;;;3.60;;
10977;SDS011;5542;48.272;10.794;2023-06-01T02:29:01;3.38;;;3.08;;
10977;SDS011;5542;48.272;10.794;2023-06-01T02:31:30;3.40;;;3.10;;
10977;SDS011;5542;48.272;10.794;2023-06-01T02:33:57;2.90;;;2.70;;
10977;SDS011;5542;48.272;10.794;2023-06-01T02:36:25;3.85;;;3.50;;
10977;SDS011;5542;48.272;10.794;2023-06-01T02:38:51;3.10;;;2.90;;
10977;SDS011;5542;48.272;10.794;2023-06-01T02:41:18;3.65;;;3.25;;
10977;SDS011;5542;48.272;10.794;2023-06-01T02:43:46;3.95;;;3.60;;
10977;SDS011;5542;48.272;10.794;2023-06-01T02:46:12;3.50;;;3.20;;
10977;SDS011;5542;48.272;10.794;2023-06-01T02:48:39;3.47;;;3.17;;
10977;SDS011;5542;48.272;10.794;2023-06-01T02:51:06;3.90;;;3.60;;
10977;SDS011;5542;48.272;10.794;2023-06-01T02:53:34;5.25;;;4.65;;
10977;SDS011;5542;48.272;10.794;2023-06-01T02:56:00;5.10;;;4.70;;
10977;SDS011;5542;48.272;10.794;2023-06-01T02:58:27;3.97;;;3.60;;
10977;SDS011;5542;48.272;10.794;2023-06-01T03:00:54;3.80;;;3.50;;
10977;SDS011;5542;48.272;10.794;2023-06-01T03:03:22;3.22;;;3.03;;
10977;SDS011;5542;48.272;10.794;2023-06-01T03:05:49;3.67;;;3.37;;
10977;SDS011;5542;48.272;10.794;2023-06-01T03:08:16;4.00;;;3.70;;
10977;SDS011;5542;48.272;10.794;2023-06-01T03:10:44;3.60;;;3.30;;
10977;SDS011;5542;48.272;10.794;2023-06-01T03:13:11;3.40;;;3.10;;
10977;SDS011;5542;48.272;10.794;2023-06-01T03:15:38;3.50;;;2.92;;
10977;SDS011;5542;48.272;10.794;2023-06-01T03:18:05;2.70;;;2.50;;
10977;SDS011;5542;48.272;10.794;2023-06-01T03:20:32;2.85;;;2.65;;
10977;SDS011;5542;48.272;10.794;2023-06-01T03:22:59;2.70;;;2.50;;
10977;SDS011;5542;48.272;10.794;2023-06-01T03:25:25;2.60;;;2.40;;
10977;SDS011;5542;48.272;10.794;2023-06-01T03:27:53;2.75;;;2.55;;
10977;SDS011;5542;48.272;10.794;2023-06-01T03:30:20;2.70;;;2.50;;
10977;SDS011;5542;48.272;10.794;2023-06-01T03:32:47;2.35;;;2.15;;
10977;SDS011;5542;48.272;10.794;2023-06-01T03:35:14;2.85;;;2.65;;
10977;SDS011;5542;48.272;10.794;2023-06-01T03:37:41;3.50;;;3.17;;
10977;SDS011;5542;48.272;10.794;2023-06-01T03:40:09;3.33;;;3.03;;
10977;SDS011;5542;48.272;10.794;2023-06-01T03:42:36;3.40;;;3.10;;
10977;SDS011;5542;48.272;10.794;2023-06-01T03:45:05;3.23;;;3.00;;
10977;SDS011;5542;48.272;10.794;2023-06-01T03:47:32;3.10;;;2.80;;
10977;SDS011;5542;48.272;10.794;2023-06-01T03:49:59;2.80;;;2.60;;
10977;SDS011;5542;48.272;10.794;2023-06-01T03:52:26;3.20;;;2.90;;
10977;SDS011;5542;48.272;10.794;2023-06-01T03:54:53;2.70;;;2.50;;
10977;SDS011;5542;48.272;10.794;2023-06-01T03:57:20;2.80;;;2.60;;
10977;SDS011;5542;48.272;10.794;2023-06-01T03:59:47;2.67;;;2.47;;
10977;SDS011;5542;48.272;10.794;2023-06-01T04:02:15;2.70;;;2.55;;
10977;SDS011;5542;48.272;10.794;2023-06-01T04:04:43;2.70;;;2.50;;
10977;SDS011;5542;48.272;10.794;2023-06-01T04:07:11;2.67;;;2.47;;
10977;SDS011;5542;48.272;10.794;2023-06-01T04:09:39;2.70;;;2.50;;
10977;SDS011;5542;48.272;10.794;2023-06-01T04:12:06;3.45;;;3.15;;
10977;SDS011;5542;48.272;10.794;2023-06-01T04:14:34;2.90;;;2.70;;
10977;SDS011;5542;48.272;10.794;2023-06-01T04:17:01;2.80;;;2.60;;
10977;SDS011;5542;48.272;10.794;2023-06-01T04:19:29;3.30;;;3.00;;
10977;SDS011;5542;48.272;10.794;2023-06-01T04:21:56;3.90;;;3.60;;
10977;SDS011;5542;48.272;10.794;2023-06-01T04:24:22;3.65;;;3.35;;
10977;SDS011;5542;48.272;10.794;2023-06-01T04:26:49;3.35;;;3.13;;
10977;SDS011;5542;48.272;10.794;2023-06-01T04:29:16;3.75;;;3.45;;
10977;SDS011;5542;48.272;10.794;2023-06-01T04:31:44;3.38;;;3.13;;
10977;SDS011;5542;48.272;10.794;2023-06-01T04:34:11;3.70;;;3.40;;
10977;SDS011;5542;48.272;10.794;2023-06-01T04:36:39;3.50;;;3.20;;
10977;SDS011;5542;48.272;10.794;2023-06-01T04:39:05;3.60;;;3.30;;
10977;SDS011;5542;48.272;10.794;2023-06-01T04:41:33;4.00;;;3.65;;
10977;SDS011;5542;48.272;10.794;2023-06-01T04:44:01;4.20;;;3.80;;
10977;SDS011;5542;48.272;10.794;2023-06-01T04:46:31;3.95;;;3.63;;
10977;SDS011;5542;48.272;10.794;2023-06-01T04:48:58;4.55;;;4.15;;
10977;SDS011;5542;48.272;10.794;2023-06-01T04:51:26;4.30;;;3.80;;
10977;SDS011;5542;48.272;10.794;2023-06-01T04:53:55;4.13;;;3.72;;
10977;SDS011;5542;48.272;10.794;2023-06-01T04:56:22;5.70;;;4.10;;
10977;SDS011;5542;48.272;10.794;2023-06-01T04:58:51;4.65;;;4.22;;
10977;SDS011;5542;48.272;10.794;2023-06-01T05:01:19;5.60;;;4.28;;
10977;SDS011;5542;48.272;10.794;2023-06-01T05:03:50;3.85;;;3.55;;
10977;SDS011;5542;48.272;10.794;2023-06-01T05:06:19;4.65;;;4.15;;
10977;SDS011;5542;48.272;10.794;2023-06-01T05:08:46;5.85;;;4.20;;
10977;SDS011;5542;48.272;10.794;2023-06-01T05:11:14;4.45;;;4.05;;
10977;SDS011;5542;48.272;10.794;2023-06-01T05:13:40;4.38;;;3.83;;
10977;SDS011;5542;48.272;10.794;2023-06-01T05:16:08;4.55;;;4.15;;
10977;SDS011;5542;48.272;10.794;2023-06-01T05:18:35;4.90;;;4.40;;
10977;SDS011;5542;48.272;10.794;2023-06-01T05:21:02;4.33;;;4.03;;
10977;SDS011;5542;48.272;10.794;2023-06-01T05:23:29;5.97;;;4.20;;
10977;SDS011;5542;48.272;10.794;2023-06-01T05:25:56;3.70;;;3.40;;
10977;SDS011;5542;48.272;10.794;2023-06-01T05:28:28;5.55;;;4.47;;
10977;SDS011;5542;48.272;10.794;2023-06-01T05:30:55;4.03;;;3.60;;
10977;SDS011;5542;48.272;10.794;2023-06-01T05:33:21;4.63;;;3.95;;
10977;SDS011;5542;48.272;10.794;2023-06-01T05:35:48;4.50;;;4.10;;
10977;SDS011;5542;48.272;10.794;2023-06-01T05:38:15;5.22;;;4.10;;
10977;SDS011;5542;48.272;10.794;2023-06-01T05:40:41;4.97;;;3.90;;
10977;SDS011;5542;48.272;10.794;2023-06-01T05:43:08;4.85;;;4.30;;
10977;SDS011;5542;48.272;10.794;2023-06-01T05:45:36;4.97;;;4.47;;
10977;SDS011;5542;48.272;10.794;2023-06-01T05:48:03;4.95;;;4.45;;
10977;SDS011;5542;48.272;10.794;2023-06-01T05:50:29;4.15;;;3.78;;
10977;SDS011;5542;48.272;10.794;2023-06-01T05:52:56;4.10;;;3.80;;
10977;SDS011;5542;48.272;10.794;2023-06-01T05:55:22;5.45;;;4.30;;
10977;SDS011;5542;48.272;10.794;2023-06-01T05:57:49;5.45;;;4.30;;
10977;SDS011;5542;48.272;10.794;2023-06-01T06:00:16;4.70;;;4.28;;
10977;SDS011;5542;48.272;10.794;2023-06-01T06:02:45;4.80;;;4.40;;
10977;SDS011;5542;48.272;10.794;2023-06-01T06:05:11;5.00;;;4.50;;
10977;SDS011;5542;48.272;10.794;2023-06-01T06:07:38;4.72;;;4.25;;
10977;SDS011;5542;48.272;10.794;2023-06-01T06:10:05;4.40;;;4.00;;
10977;SDS011;5542;48.272;10.794;2023-06-01T06:12:32;4.25;;;3.85;;
10977;SDS011;5542;48.272;10.794;2023-06-01T06:14:59;5.85;;;4.40;;
10977;SDS011;5542;48.272;10.794;2023-06-01T06:17:26;3.83;;;3.53;;
10977;SDS011;5542;48.272;10.794;2023-06-01T06:19:54;4.40;;;4.00;;
10977;SDS011;5542;48.272;10.794;2023-06-01T06:22:20;3.85;;;3.55;;
10977;SDS011;5542;48.272;10.794;2023-06-01T06:24:47;4.93;;;3.95;;
10977;SDS011;5542;48.272;10.794;2023-06-01T06:27:14;5.20;;;3.85;;
10977;SDS011;5542;48.272;10.794;2023-06-01T06:29:41;4.22;;;3.83;;
10977;SDS011;5542;48.272;10.794;2023-06-01T06:32:07;5.72;;;4.13;;
10977;SDS011;5542;48.272;10.794;2023-06-01T06:34:35;3.95;;;3.50;;
10977;SDS011;5542;48.272;10.794;2023-06-01T06:37:03;5.72;;;4.22;;
10977;SDS011;5542;48.272;10.794;2023-06-01T06:39:31;4.22;;;3.70;;
10977;SDS011;5542;48.272;10.794;2023-06-01T06:41:58;4.70;;;4.00;;
10977;SDS011;5542;48.272;10.794;2023-06-01T06:44:26;4.40;;;4.00;;
10977;SDS011;5542;48.272;10.794;2023-06-01T06:46:52;4.90;;;4.10;;
10977;SDS011;5542;48.272;10.794;2023-06-01T06:49:19;4.40;;;3.95;;
10977;SDS011;5542;48.272;10.794;2023-06-01T06:51:45;3.75;;;3.40;;
10977;SDS011;5542;48.272;10.794;2023-06-01T06:54:14;4.20;;;3.80;;
10977;SDS011;5542;48.272;10.794;2023-06-01T06:56:40;4.40;;;3.65;;
10977;SDS011;5542;48.272;10.794;2023-06-01T06:59:07;4.00;;;3.60;;
10977;SDS011;5542;48.272;10.794;2023-06-01T07:01:34;6.60;;;4.05;;
10977;SDS011;5542;48.272;10.794;2023-06-01T07:04:03;4.05;;;3.65;;
10977;SDS011;5542;48.272;10.794;2023-06-01T07:06:30;4.88;;;4.32;;
10977;SDS011;5542;48.272;10.794;2023-06-01T07:08:57;4.15;;;3.75;;
10977;SDS011;5542;48.272;10.794;2023-06-01T07:11:25;4.20;;;3.80;;
10977;SDS011;5542;48.272;10.794;2023-06-01T07:13:53;4.05;;;3.65;;
10977;SDS011;5542;48.272;10.794;2023-06-01T07:16:22;4.60;;;4.10;;
10977;SDS011;5542;48.272;10.794;2023-06-01T07:18:49;5.30;;;3.97;;
10977;SDS011;5542;48.272;10.794;2023-06-01T07:21:16;4.25;;;3.80;;
10977;SDS011;5542;48.272;10.794;2023-06-01T07:23:42;5.35;;;4.10;;
10977;SDS011;5542;48.272;10.794;2023-06-01T07:26:10;4.70;;;4.03;;
10977;SDS011;5542;48.272;10.794;2023-06-01T07:28:38;4.45;;;4.03;;
10977;SDS011;5542;48.272;10.794;2023-06-01T07:31:07;4.35;;;3.85;;
10977;SDS011;5542;48.272;10.794;2023-06-01T07:33:34;4.00;;;3.60;;
10977;SDS011;5542;48.272;10.794;2023-06-01T07:36:02;4.50;;;4.10;;
10977;SDS011;5542;48.272;10.794;2023-06-01T07:38:29;4.40;;;4.00;;
10977;SDS011;5542;48.272;10.794;2023-06-01T07:40:56;4.50;;;4.10;;
10977;SDS011;5542;48.272;10.794;2023-06-01T07:43:22;4.45;;;4.05;;
10977;SDS011;5542;48.272;10.794;2023-06-01T07:45:50;8.52;;;4.10;;
10977;SDS011;5542;48.272;10.794;2023-06-01T07:48:17;4.43;;;4.03;;
10977;SDS011;5542;48.272;10.794;2023-06-01T07:50:44;5.03;;;4.10;;
10977;SDS011;5542;48.272;10.794;2023-06-01T07:53:11;5.05;;;3.90;;
10977;SDS011;5542;48.272;10.794;2023-06-01T07:55:37;5.50;;;4.40;;
10977;SDS011;5542;48.272;10.794;2023-06-01T07:58:04;5.37;;;4.40;;
10977;SDS011;5542;48.272;10.794;2023-06-01T08:00:30;5.53;;;3.97;;
10977;SDS011;5542;48.272;10.794;2023-06-01T08:02:58;3.72;;;3.42;;
10977;SDS011;5542;48.272;10.794;2023-06-01T08:05:31;4.50;;;4.07;;
10977;SDS011;5542;48.272;10.794;2023-06-01T08:07:58;4.50;;;4.10;;
10977;SDS011;5542;48.272;10.794;2023-06-01T08:10:25;4.03;;;3.63;;
10977;SDS011;5542;48.272;10.794;2023-06-01T08:12:52;4.05;;;3.60;;
10977;SDS011;5542;48.272;10.794;2023-06-01T08:15:21;4.40;;;4.00;;
10977;SDS011;5542;48.272;10.794;2023-06-01T08:17:48;6.70;;;4.75;;
10977;SDS011;5542;48.272;10.794;2023-06-01T08:20:17;5.32;;;4.40;;
10977;SDS011;5542;48.272;10.794;2023-06-01T08:22:47;5.35;;;4.85;;
10977;SDS011;5542;48.272;10.794;2023-06-01T08:25:14;4.63;;;4.20;;
10977;SDS011;5542;48.272;10.794;2023-06-01T08:27:41;5.20;;;4.13;;
10977;SDS011;5542;48.272;10.794;2023-06-01T08:30:08;5.85;;;4.10;;
10977;SDS011;5542;48.272;10.794;2023-06-01T08:32:36;4.40;;;4.00;;
10977;SDS011;5542;48.272;10.794;2023-06-01T08:35:03;5.20;;;4.70;;
10977;SDS011;5542;48.272;10.794;2023-06-01T08:37:31;4.90;;;4.00;;
10977;SDS011;5542;48.272;10.794;2023-06-01T08:39:58;5.47;;;4.30;;
10977;SDS011;5542;48.272;10.794;2023-06-01T08:42:25;5.13;;;4.63;;
10977;SDS011;5542;48.272;10.794;2023-06-01T08:44:57;5.10;;;4.60;;
10977;SDS011;5542;48.272;10.794;2023-06-01T08:47:24;4.18;;;3.78;;
10977;SDS011;5542;48.272;10.794;2023-06-01T08:49:51;4.28;;;3.88;;
10977;SDS011;5542;48.272;10.794;2023-06-01T08:52:19;5.07;;;4.50;;
10977;SDS011;5542;48.272;10.794;2023-06-01T08:54:48;5.00;;;4.50;;
10977;SDS011;5542;48.272;10.794;2023-06-01T08:57:16;4.55;;;4.15;;
10977;SDS011;5542;48.272;10.794;2023-06-01T08:59:45;4.88;;;4.40;;
10977;SDS011;5542;48.272;10.794;2023-06-01T09:02:12;4.80;;;4.40;;
10977;SDS011;5542;48.272;10.794;2023-06-01T09:04:39;5.63;;;4.20;;
10977;SDS011;5542;48.272;10.794;2023-06-01T09:07:09;4.67;;;4.10;;
10977;SDS011;5542;48.272;10.794;2023-06-01T09:09:36;5.20;;;4.40;;
10977;SDS011;5542;48.272;10.794;2023-06-01T09:12:17;4.93;;;4.25;;
10977;SDS011;5542;48.272;10.794;2023-06-01T09:14:45;5.28;;;4.75;;
10977;SDS011;5542;48.272;10.794;2023-06-01T09:17:13;4.88;;;4.35;;
10977;SDS011;5542;48.272;10.794;2023-06-01T09:19:41;4.75;;;4.30;;
10977;SDS011;5542;48.272;10.794;2023-06-01T09:22:08;4.32;;;3.92;;
10977;SDS011;5542;48.272;10.794;2023-06-01T09:24:35;5.13;;;4.63;;
10977;SDS011;5542;48.272;10.794;2023-06-01T09:27:02;4.00;;;3.70;;
10977;SDS011;5542;48.272;10.794;2023-06-01T09:29:30;5.57;;;4.45;;
10977;SDS011;5542;48.272;10.794;2023-06-01T09:31:57;4.88;;;4.15;;
10977;SDS011;5542;48.272;10.794;2023-06-01T09:34:26;5.03;;;4.38;;
10977;SDS011;5542;48.272;10.794;2023-06-01T09:36:53;4.93;;;3.95;;
10977;SDS011;5542;48.272;10.794;2023-06-01T09:39:21;4.88;;;3.80;;
10977;SDS011;5542;48.272;10.794;2023-06-01T09:41:50;5.20;;;4.25;;
10977;SDS011;5542;48.272;10.794;2023-06-01T09:44:22;5.53;;;4.10;;
10977;SDS011;5542;48.272;10.794;2023-06-01T09:46:52;4.28;;;3.88;;
10977;SDS011;5542;48.272;10.794;2023-06-01T09:49:20;4.63;;;4.20;;
10977;SDS011;5542;48.272;10.794;2023-06-01T09:51:49;4.45;;;4.03;;
10977;SDS011;5542;48.272;10.794;2023-06-01T09:54:26;4.60;;;4.18;;
10977;SDS011;5542;48.272;10.794;2023-06-01T09:56:54;4.72;;;4.30;;
10977;SDS011;5542;48.272;10.794;2023-06-01T09:59:21;5.93;;;3.97;;
10977;SDS011;5542;48.272;10.794;2023-06-01T10:01:49;4.70;;;4.20;;
10977;SDS011;5542;48.272;10.794;2023-06-01T10:04:20;4.57;;;4.10;;
10977;SDS011;5542;48.272;10.794;2023-06-01T10:06:49;6.00;;;4.03;;
10977;SDS011;5542;48.272;10.794;2023-06-01T10:09:20;4.43;;;4.03;;
10977;SDS011;5542;48.272;10.794;2023-06-01T10:11:52;4.78;;;4.28;;
10977;SDS011;5542;48.272;10.794;2023-06-01T10:14:20;4.53;;;4.00;;
10977;SDS011;5542;48.272;10.794;2023-06-01T10:16:48;4.57;;;4.07;;
10977;SDS011;5542;48.272;10.794;2023-06-01T10:19:18;4.60;;;4.20;;
10977;SDS011;5542;48.272;10.794;2023-06-01T10:21:45;4.70;;;4.20;;
10977;SDS011;5542;48.272;10.794;2023-06-01T10:24:12;4.60;;;4.20;;
10977;SDS011;5542;48.272;10.794;2023-06-01T10:26:41;4.40;;;4.00;;
10977;SDS011;5542;48.272;10.794;2023-06-01T10:29:13;4.63;;;3.80;;
10977;SDS011;5542;48.272;10.794;2023-06-01T10:31:43;5.30;;;4.22;;
10977;SDS011;5542;48.272;10.794;2023-06-01T10:34:10;5.35;;;4.38;;
10977;SDS011;5542;48.272;10.794;2023-06-01T10:39:40;3.88;;;3.58;;
10977;SDS011;5542;48.272;10.794;2023-06-01T10:45:06;5.10;;;4.15;;
10977;SDS011;5542;48.272;10.794;2023-06-01T10:47:43;4.22;;;3.83;;
10977;SDS011;5542;48.272;10.794;2023-06-01T10:50:13;4.72;;;4.32;;
10977;SDS011;5542;48.272;10.794;2023-06-01T10:52:43;4.77;;;4.10;;
10977;SDS011;5542;48.272;10.794;2023-06-01T10:55:23;4.45;;;4.05;;
10977;SDS011;5542;48.272;10.794;2023-06-01T11:00:48;4.60;;;4.20;;
10977;SDS011;5542;48.272;10.794;2023-06-01T11:03:15;5.00;;;4.30;;
10977;SDS011;5542;48.272;10.794;2023-06-01T11:06:02;4.57;;;4.00;;
10977;SDS011;5542;48.272;10.794;2023-06-01T11:08:53;4.40;;;4.00;;
10977;SDS011;5542;48.272;10.794;2023-06-01T11:11:21;4.68;;;4.15;;
10977;SDS011;5542;48.272;10.794;2023-06-01T11:14:12;4.22;;;3.83;;
10977;SDS011;5542;48.272;10.794;2023-06-01T11:16:39;5.35;;;4.05;;
10977;SDS011;5542;48.272;10.794;2023-06-01T11:19:06;4.20;;;3.83;;
10977;SDS011;5542;48.272;10.794;2023-06-01T11:21:35;4.07;;;3.70;;
10977;SDS011;5542;48.272;10.794;2023-06-01T11:24:06;4.25;;;3.85;;
10977;SDS011;5542;48.272;10.794;2023-06-01T11:26:35;4.30;;;3.90;;
10977;SDS011;5542;48.272;10.794;2023-06-01T11:29:05;4.05;;;3.75;;
10977;SDS011;5542;48.272;10.794;2023-06-01T11:31:37;4.80;;;4.28;;
10977;SDS011;5542;48.272;10.794;2023-06-01T11:34:05;4.28;;;3.88;;
10977;SDS011;5542;48.272;10.794;2023-06-01T11:36:37;4.50;;;4.10;;
10977;SDS011;5542;48.272;10.794;2023-06-01T11:39:15;4.13;;;3.80;;
10977;SDS011;5542;48.272;10.794;2023-06-01T11:41:43;4.57;;;4.07;;
10977;SDS011;5542;48.272;10.794;2023-06-01T11:44:10;5.13;;;4.07;;
10977;SDS011;5542;48.272;10.794;2023-06-01T11:46:37;6.07;;;3.97;;
10977;SDS011;5542;48.272;10.794;2023-06-01T11:49:04;4.53;;;4.13;;
10977;SDS011;5542;48.272;10.794;2023-06-01T11:51:32;4.82;;;4.32;;
10977;SDS011;5542;48.272;10.794;2023-06-01T11:54:02;4.28;;;3.83;;
10977;SDS011;5542;48.272;10.794;2023-06-01T11:56:30;4.22;;;3.83;;
10977;SDS011;5542;48.272;10.794;2023-06-01T11:58:59;4.85;;;3.75;;
10977;SDS011;5542;48.272;10.794;2023-06-01T12:01:27;3.80;;;3.50;;
10977;SDS011;5542;48.272;10.794;2023-06-01T12:03:54;3.50;;;3.20;;
10977;SDS011;5542;48.272;10.794;2023-06-01T12:06:24;4.15;;;3.85;;
10977;SDS011;5542;48.272;10.794;2023-06-01T12:08:51;4.60;;;4.20;;
10977;SDS011;5542;48.272;10.794;2023-06-01T12:11:20;4.13;;;3.72;;
10977;SDS011;5542;48.272;10.794;2023-06-01T12:13:49;4.13;;;3.83;;
10977;SDS011;5542;48.272;10.794;2023-06-01T12:16:16;3.88;;;3.53;;
10977;SDS011;5542;48.272;10.794;2023-06-01T12:18:42;5.55;;;4.25;;
10977;SDS011;5542;48.272;10.794;2023-06-01T12:21:10;4.90;;;4.28;;
10977;SDS011;5542;48.272;10.794;2023-06-01T12:23:37;4.90;;;4.03;;
10977;SDS011;5542;48.272;10.794;2023-06-01T12:26:04;4.78;;;4.32;;
10977;SDS011;5542;48.272;10.794;2023-06-01T12:28:46;4.38;;;3.97;;
10977;SDS011;5542;48.272;10.794;2023-06-01T12:31:18;4.80;;;4.40;;
10977;SDS011;5542;48.272;10.794;2023-06-01T12:33:45;4.70;;;4.30;;
10977;SDS011;5542;48.272;10.794;2023-06-01T12:36:29;4.38;;;3.97;;
10977;SDS011;5542;48.272;10.794;2023-06-01T12:38:57;4.22;;;3.75;;
10977;SDS011;5542;48.272;10.794;2023-06-01T12:41:25;3.92;;;3.63;;
10977;SDS011;5542;48.272;10.794;2023-06-01T12:43:53;4.23;;;3.80;;
10977;SDS011;5542;48.272;10.794;2023-06-01T12:46:20;4.50;;;3.92;;
10977;SDS011;5542;48.272;10.794;2023-06-01T12:48:48;4.82;;;4.03;;
10977;SDS011;5542;48.272;10.794;2023-06-01T12:51:15;5.00;;;4.10;;
10977;SDS011;5542;48.272;10.794;2023-06-01T12:53:42;5.53;;;4.28;;
10977;SDS011;5542;48.272;10.794;2023-06-01T12:56:09;4.53;;;4.13;;
10977;SDS011;5542;48.272;10.794;2023-06-01T12:58:36;5.55;;;4.35;;
10977;SDS011;5542;48.272;10.794;2023-06-01T13:01:05;4.00;;;3.70;;
10977;SDS011;5542;48.272;10.794;2023-06-01T13:03:32;4.68;;;4.18;;
10977;SDS011;5542;48.272;10.794;2023-06-01T13:05:58;4.90;;;3.83;;
10977;SDS011;5542;48.272;10.794;2023-06-01T13:08:26;4.10;;;3.70;;
10977;SDS011;5542;48.272;10.794;2023-06-01T13:10:53;4.15;;;3.75;;
10977;SDS011;5542;48.272;10.794;2023-06-01T13:13:21;4.20;;;3.80;;
10977;SDS011;5542;48.272;10.794;2023-06-01T13:15:48;3.80;;;3.50;;
10977;SDS011;5542;48.272;10.794;2023-06-01T13:18:16;4.25;;;3.83;;
10977;SDS011;5542;48.272;10.794;2023-06-01T13:20:43;4.70;;;3.97;;
10977;SDS011;5542;48.272;10.794;2023-06-01T13:23:10;4.20;;;3.88;;
10977;SDS011;5542;48.272;10.794;2023-06-01T13:25:37;4.30;;;4.00;;
10977;SDS011;5542;48.272;10.794;2023-06-01T13:28:04;4.32;;;3.92;;
10977;SDS011;5542;48.272;10.794;2023-06-01T13:30:32;4.57;;;4.17;;
10977;SDS011;5542;48.272;10.794;2023-06-01T13:32:59;3.80;;;3.50;;
10977;SDS011;5542;48.272;10.794;2023-06-01T13:35:27;4.90;;;4.13;;
10977;SDS011;5542;48.272;10.794;2023-06-01T13:37:54;4.50;;;3.83;;
10977;SDS011;5542;48.272;10.794;2023-06-01T13:40:21;4.32;;;3.92;;
10977;SDS011;5542;48.272;10.794;2023-06-01T13:42:49;4.25;;;3.85;;
10977;SDS011;5542;48.272;10.794;2023-06-01T13:45:16;4.75;;;4.30;;
10977;SDS011;5542;48.272;10.794;2023-06-01T13:47:43;4.53;;;3.90;;
10977;SDS011;5542;48.272;10.794;2023-06-01T13:50:10;5.90;;;4.10;;
10977;SDS011;5542;48.272;10.794;2023-06-01T13:52:38;4.20;;;3.90;;
10977;SDS011;5542;48.272;10.794;2023-06-01T13:55:05;3.80;;;3.50;;
10977;SDS011;5542;48.272;10.794;2023-06-01T13:57:32;6.60;;;3.90;;
10977;SDS011;5542;48.272;10.794;2023-06-01T13:59:59;4.55;;;3.83;;
10977;SDS011;5542;48.272;10.794;2023-06-01T14:02:26;5.00;;;4.50;;
10977;SDS011;5542;48.272;10.794;2023-06-01T14:04:52;5.15;;;3.45;;
10977;SDS011;5542;48.272;10.794;2023-06-01T14:07:19;3.83;;;3.53;;
10977;SDS011;5542;48.272;10.794;2023-06-01T14:09:47;4.50;;;4.10;;
10977;SDS011;5542;48.272;10.794;2023-06-01T14:12:14;4.22;;;3.83;;
10977;SDS011;5542;48.272;10.794;2023-06-01T14:14:41;4.23;;;3.90;;
10977;SDS011;5542;48.272;10.794;2023-06-01T14:17:10;4.40;;;4.00;;
10977;SDS011;5542;48.272;10.794;2023-06-01T14:19:37;4.30;;;3.90;;
10977;SDS011;5542;48.272;10.794;2023-06-01T14:22:03;3.75;;;3.45;;
10977;SDS011;5542;48.272;10.794;2023-06-01T14:24:30;4.15;;;3.75;;
10977;SDS011;5542;48.272;10.794;2023-06-01T14:26:58;4.10;;;3.80;;
10977;SDS011;5542;48.272;10.794;2023-06-01T14:29:25;4.72;;;4.00;;
10977;SDS011;5542;48.272;10.794;2023-06-01T14:31:52;3.50;;;3.30;;
10977;SDS011;5542;48.272;10.794;2023-06-01T14:34:21;3.90;;;3.50;;
10977;SDS011;5542;48.272;10.794;2023-06-01T14:36:49;4.03;;;3.67;;
10977;SDS011;5542;48.272;10.794;2023-06-01T14:39:16;4.00;;;3.60;;
10977;SDS011;5542;48.272;10.794;2023-06-01T14:41:43;4.25;;;3.83;;
10977;SDS011;5542;48.272;10.794;2023-06-01T14:44:11;3.85;;;3.55;;
10977;SDS011;5542;48.272;10.794;2023-06-01T14:46:38;3.80;;;3.50;;
10977;SDS011;5542;48.272;10.794;2023-06-01T14:49:05;6.32;;;5.72;;
10977;SDS011;5542;48.272;10.794;2023-06-01T14:51:32;5.22;;;4.13;;
10977;SDS011;5542;48.272;10.794;2023-06-01T14:53:59;4.22;;;3.83;;
10977;SDS011;5542;48.272;10.794;2023-06-01T14:56:25;3.47;;;3.17;;
10977;SDS011;5542;48.272;10.794;2023-06-01T14:58:52;3.53;;;3.23;;
10977;SDS011;5542;48.272;10.794;2023-06-01T15:01:20;3.55;;;3.30;;
10977;SDS011;5542;48.272;10.794;2023-06-01T15:03:48;3.92;;;3.60;;